Aplington, Iowa
Current Conditions -  °F | °C
As of 1:55 PM on Sunday 21 Dec 2014 (Local Time) from KIFA Reporting Station
Overcast Overcast  
Wind Chill: 28°   Ceiling: 1000
Heat Index: 38°   Visibility: 10mi
Dew Point: 35°   Wind: 22mph
Humidity: 88%   Direction: 180°S
Pressure: 29.81"   Gusts: 28mph
Location:  42.58°N, 92.88°W
Report Text: KIFA 211955Z AUTO 18019G24KT 10SM OVC010 04/02 A2981 RMK AO2 T00350017
Loading
Personal Weather Stations






























Interactive Weather Map New forecast layout! Learn more

10-Day Weather Forecast

Advertisements
Track Severe Weather on mobile